Campanya meteocatpedra

Dades EMA Algerri

?
?
Resum diari 21:00 TU
Dades diàries de l'estació meteorològica
Temperatura mitjana 25.6 °C
Temperatura màxima 31.4 °C 15:49 TU
Temperatura mínima 19.6 °C 2:37 TU
Humitat relativa mitjana 56%
Precipitació acumulada 0.0 mm
Ratxa màxima del vent (2 m) 15.8 km/h - 251º 13:03 TU
Irradiació solar global 24.6 MJ/m2

El tram horari està expressat en Temps Universal (TU). Cal sumar una hora en horari d'hivern i dues en horari d'estiu per passar a l'hora oficial.

Algerri

Metadades estació meteorol´gica
Municipi Algerri
Comarca Noguera
Altitud 301 m
Data alta 13.12.2000
Estat actual Operativa
Dades de període
Període
TU
TM
°C
TX
°C
TN
°C
HRM
%
PPT
mm
VVM (2 m)
km/h
DVM (2 m)
graus
VVX (2 m)
km/h
RS
W/m2
00:00 - 00:30 21.5 22.1 21.1 65 0.0 1.4 155 5.4 0
00:30 - 01:00 20.4 21.0 20.1 72 0.0 2.5 202 5.4 0
01:00 - 01:30 20.8 21.4 20.5 69 0.0 2.9 233 11.5 0
01:30 - 02:00 21.1 21.6 20.9 68 0.0 4.0 265 10.4 0
02:00 - 02:30 21.3 21.7 20.3 66 0.0 1.8 260 7.9 0
02:30 - 03:00 20.5 21.3 19.6 68 0.0 2.9 331 6.5 0
03:00 - 03:30 21.4 21.7 21.2 62 0.0 1.8 259 6.5 0
03:30 - 04:00 21.5 22.1 20.9 62 0.0 2.2 313 6.5 0
04:00 - 04:30 21.3 21.7 21.0 62 0.0 0.7 341 4.3 0
04:30 - 05:00 21.0 21.2 20.8 65 0.0 0.7 351 3.6 0
05:00 - 05:30 20.7 21.0 20.5 68 0.0 1.1 354 3.2 9
05:30 - 06:00 20.4 21.0 20.0 71 0.0 1.1 230 2.9 42
06:00 - 06:30 21.0 21.3 20.9 68 0.0 0.4 48 3.6 71
06:30 - 07:00 21.5 22.1 21.3 67 0.0 1.4 250 4.0 139
07:00 - 07:30 23.4 24.1 22.1 59 0.0 1.4 133 4.7 303
07:30 - 08:00 23.9 24.5 23.4 61 0.0 1.4 143 5.0 357
08:00 - 08:30 24.8 25.0 24.6 57 0.0 2.2 120 6.1 443
08:30 - 09:00 25.2 25.6 24.8 60 0.0 2.2 209 9.7 491
09:00 - 09:30 25.1 25.4 25.0 64 0.0 4.0 210 9.4 520
09:30 - 10:00 25.6 26.0 25.4 62 0.0 6.1 237 13.7 692
10:00 - 10:30 26.5 27.2 26.1 60 0.0 5.8 220 14.0 781
10:30 - 11:00 26.7 27.0 26.2 58 0.0 5.8 222 14.4 822
11:00 - 11:30 27.3 27.6 27.0 55 0.0 4.7 224 14.0 897
11:30 - 12:00 28.0 28.7 27.6 53 0.0 4.3 229 14.0 894
12:00 - 12:30 28.4 28.6 28.0 50 0.0 5.8 232 15.1 907
12:30 - 13:00 28.9 29.4 28.5 49 0.0 5.0 209 15.1 893
13:00 - 13:30 29.5 29.9 29.1 48 0.0 5.0 254 15.8 868
13:30 - 14:00 29.9 30.3 29.4 46 0.0 5.0 220 14.8 817
14:00 - 14:30 30.3 30.6 30.1 45 0.0 4.3 243 14.4 757
14:30 - 15:00 30.6 30.8 30.2 43 0.0 5.0 238 15.1 695
15:00 - 15:30 30.6 31.0 30.2 41 0.0 4.7 243 12.2 499
15:30 - 16:00 30.8 31.4 30.2 39 0.0 5.0 265 14.4 572
16:00 - 16:30 31.1 31.2 30.8 36 0.0 5.0 250 11.9 457
16:30 - 17:00 30.9 31.1 30.8 38 0.0 5.8 247 11.9 347
17:00 - 17:30 30.6 30.8 30.0 41 0.0 4.7 240 11.2 230
17:30 - 18:00 29.9 30.3 29.6 45 0.0 2.9 243 8.6 118
18:00 - 18:30 29.4 29.6 29.2 45 0.0 2.9 249 8.6 36
18:30 - 19:00 28.6 29.3 28.2 46 0.0 1.1 332 2.9 12
19:00 - 19:30 27.2 28.3 26.1 51 0.0 1.4 350 4.0 1
19:30 - 20:00 25.8 26.1 25.6 56 0.0 2.5 13 5.8 0
20:00 - 20:30 25.7 25.9 25.4 56 0.0 3.6 353 5.8 0
20:30 - 21:00 25.1 25.9 24.6 60 0.0 2.2 321 9.4 0
21:00 - 21:30 24.5 25.7 24.0 64 0.0 2.9 81 9.0 0

Les dades en taronja només han passat un control de qualitat automàtic. Resta pendent la seva validació definitiva.